createdAt,value
2022-12-27T00:01:14.065Z,7.72
2022-12-27T00:03:42.376Z,9.20
2022-12-27T00:06:11.729Z,9.25
2022-12-27T00:08:39.524Z,9.23
2022-12-27T00:11:11.388Z,9.65
2022-12-27T00:13:39.102Z,7.25
2022-12-27T00:16:09.315Z,9.73
2022-12-27T00:18:37.779Z,11.50
2022-12-27T00:21:07.416Z,9.57
2022-12-27T00:23:37.686Z,10.52
2022-12-27T00:26:10.212Z,8.05
2022-12-27T00:31:07.327Z,8.02
2022-12-27T00:33:37.576Z,8.65
2022-12-27T00:36:07.665Z,7.80
2022-12-27T00:38:36.397Z,8.65
2022-12-27T00:41:04.318Z,8.60
2022-12-27T00:43:32.489Z,7.30
2022-12-27T00:46:02.247Z,13.07
2022-12-27T00:48:30.612Z,9.20
2022-12-27T00:51:00.267Z,9.30
2022-12-27T00:53:29.116Z,10.15
2022-12-27T00:55:57.351Z,8.10
2022-12-27T00:58:25.722Z,11.10
2022-12-27T01:00:54.198Z,9.15
2022-12-27T01:03:23.389Z,9.95
2022-12-27T01:05:51.106Z,11.07
2022-12-27T01:08:18.807Z,9.27
2022-12-27T01:10:46.518Z,7.75
2022-12-27T01:13:14.335Z,8.32
2022-12-27T01:15:43.107Z,8.50
2022-12-27T01:18:10.854Z,11.18
2022-12-27T01:20:40.144Z,10.40
2022-12-27T01:23:07.965Z,8.48
2022-12-27T01:25:35.684Z,10.90
2022-12-27T01:28:03.416Z,8.48
2022-12-27T01:30:31.405Z,9.60
2022-12-27T01:33:01.169Z,8.10
2022-12-27T01:35:29.022Z,9.40
2022-12-27T01:37:58.193Z,9.00
2022-12-27T01:40:26.436Z,7.82
2022-12-27T01:42:53.267Z,5.63
2022-12-27T01:45:22.530Z,8.55
2022-12-27T01:47:55.567Z,9.90
2022-12-27T01:50:28.936Z,8.10
2022-12-27T01:53:06.347Z,11.18
2022-12-27T01:55:40.671Z,8.02
2022-12-27T01:58:12.597Z,12.80
2022-12-27T02:00:43.929Z,8.98
2022-12-27T02:03:12.935Z,10.52
2022-12-27T02:05:42.708Z,10.80
2022-12-27T02:08:23.730Z,13.07
2022-12-27T02:10:52.274Z,7.75
2022-12-27T02:13:20.877Z,8.95
2022-12-27T02:15:48.669Z,11.88
2022-12-27T02:18:16.988Z,8.43
2022-12-27T02:21:12.555Z,7.90
2022-12-27T02:24:06.919Z,11.55
2022-12-27T02:26:54.424Z,10.95
2022-12-27T02:29:56.980Z,8.93
2022-12-27T02:32:30.703Z,7.47
2022-12-27T02:35:09.418Z,10.38
2022-12-27T02:37:42.531Z,10.65
2022-12-27T02:40:30.014Z,13.65
2022-12-27T02:43:16.057Z,9.95
2022-12-27T02:46:11.233Z,10.00
2022-12-27T02:48:56.387Z,8.50
2022-12-27T02:51:50.613Z,10.75
2022-12-27T02:54:37.379Z,10.65
2022-12-27T02:57:12.416Z,7.55
2022-12-27T03:00:25.729Z,9.25
2022-12-27T03:06:41.704Z,9.50
2022-12-27T03:09:48.278Z,8.77
2022-12-27T03:12:42.641Z,9.45
2022-12-27T03:15:39.288Z,8.82
2022-12-27T03:18:14.882Z,8.35
2022-12-27T03:21:03.524Z,9.18
2022-12-27T03:23:49.292Z,8.85
2022-12-27T03:26:19.758Z,11.80
2022-12-27T03:29:07.767Z,12.98
2022-12-27T03:31:56.852Z,10.50
2022-12-27T03:34:35.892Z,10.05
2022-12-27T03:37:29.399Z,10.23
2022-12-27T03:40:04.617Z,10.55
2022-12-27T03:42:53.793Z,8.90
2022-12-27T03:45:42.706Z,10.15
2022-12-27T03:48:12.300Z,13.63
2022-12-27T03:50:47.641Z,11.73
2022-12-27T03:53:21.488Z,10.00
2022-12-27T03:55:49.838Z,7.80
2022-12-27T03:58:17.761Z,8.05
2022-12-27T04:00:45.661Z,8.13
2022-12-27T04:03:13.362Z,8.98
2022-12-27T04:05:42.417Z,7.70
2022-12-27T04:08:27.845Z,10.07
2022-12-27T04:11:13.153Z,8.50
2022-12-27T04:13:58.499Z,9.45
2022-12-27T04:16:43.599Z,11.38
2022-12-27T04:19:28.959Z,10.30
2022-12-27T04:22:15.294Z,10.95
2022-12-27T04:25:00.456Z,8.45
2022-12-27T04:27:45.506Z,11.52
2022-12-27T04:30:31.246Z,11.07
2022-12-27T04:33:16.573Z,9.77
2022-12-27T04:35:44.248Z,9.63
2022-12-27T04:38:13.260Z,10.50
2022-12-27T04:40:54.866Z,8.10
2022-12-27T04:43:40.323Z,10.80
2022-12-27T04:46:32.532Z,7.50
2022-12-27T04:49:17.967Z,7.03
2022-12-27T04:52:02.913Z,10.38
2022-12-27T04:54:49.709Z,8.25
2022-12-27T04:57:17.347Z,7.72
2022-12-27T05:00:02.436Z,12.02
2022-12-27T05:02:30.276Z,11.15
2022-12-27T05:04:58.179Z,9.25
2022-12-27T05:07:43.822Z,6.13
2022-12-27T05:10:30.737Z,9.88
2022-12-27T05:13:16.050Z,9.27
2022-12-27T05:15:43.843Z,9.88
2022-12-27T05:18:11.533Z,7.82
2022-12-27T05:20:39.196Z,11.88
2022-12-27T05:23:24.295Z,9.48
2022-12-27T05:25:53.320Z,9.10
2022-12-27T05:28:21.034Z,9.50
2022-12-27T05:30:48.880Z,8.77
2022-12-27T05:33:16.595Z,9.43
2022-12-27T05:35:44.408Z,8.60
2022-12-27T05:38:12.211Z,9.63
2022-12-27T05:40:39.911Z,8.85
2022-12-27T05:43:08.999Z,10.75
2022-12-27T05:45:36.667Z,6.90
2022-12-27T05:48:04.725Z,9.30
2022-12-27T05:50:32.470Z,11.82
2022-12-27T05:53:00.132Z,10.70
2022-12-27T05:55:27.849Z,10.80
2022-12-27T05:57:55.638Z,11.45
2022-12-27T06:00:24.772Z,9.93
2022-12-27T06:02:52.602Z,8.13
2022-12-27T06:05:20.410Z,10.80
2022-12-27T06:07:48.111Z,8.02
2022-12-27T06:10:15.727Z,9.88
2022-12-27T06:12:43.466Z,10.95
2022-12-27T06:15:12.067Z,8.45
2022-12-27T06:17:41.115Z,10.63
2022-12-27T06:20:09.739Z,9.98
2022-12-27T06:22:37.423Z,9.00
2022-12-27T06:25:07.900Z,9.27
2022-12-27T06:27:38.596Z,7.30
2022-12-27T06:30:07.734Z,11.18
2022-12-27T06:32:36.151Z,17.55
2022-12-27T06:35:06.041Z,8.75
2022-12-27T06:37:33.790Z,11.30
2022-12-27T06:40:01.467Z,12.02
2022-12-27T06:42:30.822Z,11.77
2022-12-27T06:44:58.555Z,11.07
2022-12-27T06:47:26.243Z,7.20
2022-12-27T06:49:54.136Z,10.70
2022-12-27T06:52:23.814Z,12.10
2022-12-27T06:54:51.469Z,9.45
2022-12-27T06:57:19.171Z,9.27
2022-12-27T06:59:52.379Z,13.93
2022-12-27T07:02:21.773Z,8.95
2022-12-27T07:04:49.600Z,9.30
2022-12-27T07:07:17.270Z,13.68
2022-12-27T07:09:46.345Z,9.75
2022-12-27T07:12:17.389Z,10.45
2022-12-27T07:14:45.059Z,9.95
2022-12-27T07:17:12.763Z,10.25
2022-12-27T07:19:40.402Z,10.25
2022-12-27T07:22:08.142Z,10.25
2022-12-27T07:24:35.906Z,13.98
2022-12-27T07:27:05.266Z,11.25
2022-12-27T07:29:33.006Z,11.80
2022-12-27T07:32:00.710Z,11.55
2022-12-27T07:34:28.420Z,12.48
2022-12-27T07:36:56.312Z,12.52
2022-12-27T07:39:24.026Z,14.07
2022-12-27T07:41:51.689Z,9.25
2022-12-27T07:44:20.814Z,13.77
2022-12-27T07:46:48.666Z,11.30
2022-12-27T07:49:18.059Z,11.95
2022-12-27T07:51:46.053Z,9.10
2022-12-27T07:54:13.741Z,10.73
2022-12-27T07:56:41.513Z,12.25
2022-12-27T07:59:12.837Z,10.52
2022-12-27T08:02:03.674Z,11.40
2022-12-27T08:04:33.208Z,13.25
2022-12-27T08:07:05.292Z,13.77
2022-12-27T08:09:36.356Z,8.50
2022-12-27T08:12:04.079Z,10.80
2022-12-27T08:14:31.766Z,13.65
2022-12-27T08:17:06.711Z,13.23
2022-12-27T08:19:34.460Z,12.90
2022-12-27T08:22:02.187Z,13.07
2022-12-27T08:24:29.845Z,10.75
2022-12-27T08:26:57.525Z,12.52
2022-12-27T08:29:25.698Z,11.43
2022-12-27T08:31:53.644Z,10.43
2022-12-27T08:34:22.776Z,17.23
2022-12-27T08:36:56.195Z,13.38
2022-12-27T08:39:24.317Z,14.00
2022-12-27T08:41:53.762Z,9.23
2022-12-27T08:44:21.551Z,13.55
2022-12-27T08:46:49.208Z,11.90
2022-12-27T08:49:16.882Z,13.95
2022-12-27T08:51:45.941Z,13.45
2022-12-27T08:54:13.671Z,11.50
2022-12-27T08:56:41.312Z,11.48
2022-12-27T08:59:09.155Z,11.07
2022-12-27T09:01:36.959Z,10.32
2022-12-27T09:04:05.169Z,10.40
2022-12-27T09:06:32.937Z,11.88
2022-12-27T09:09:02.026Z,12.07
2022-12-27T09:11:31.835Z,12.05
2022-12-27T09:14:00.630Z,13.35
2022-12-27T09:16:29.572Z,10.85
2022-12-27T09:18:58.953Z,12.55
2022-12-27T09:21:29.869Z,11.63
2022-12-27T09:23:57.649Z,12.25
2022-12-27T09:26:29.042Z,12.32
2022-12-27T09:28:57.922Z,9.15
2022-12-27T09:31:26.555Z,8.25
2022-12-27T09:33:54.931Z,10.45
2022-12-27T09:36:24.908Z,10.50
2022-12-27T09:38:54.273Z,7.63
2022-12-27T09:42:33.748Z,9.98
2022-12-27T09:44:24.084Z,10.48
2022-12-27T09:46:55.896Z,13.48
2022-12-27T09:49:34.663Z,11.32
2022-12-27T09:52:05.982Z,7.60
2022-12-27T09:54:39.983Z,11.60
2022-12-27T09:57:20.432Z,8.45
2022-12-27T09:59:52.935Z,8.50
2022-12-27T10:02:23.029Z,11.05
2022-12-27T10:07:50.639Z,12.38
2022-12-27T10:10:27.230Z,12.80
2022-12-27T10:13:11.300Z,11.27
2022-12-27T10:15:49.907Z,16.15
2022-12-27T10:18:29.077Z,14.00
2022-12-27T10:21:05.799Z,11.75
2022-12-27T10:23:37.449Z,14.88
2022-12-27T10:26:07.531Z,10.15
2022-12-27T10:28:40.568Z,10.48
2022-12-27T10:31:15.417Z,11.95
2022-12-27T10:33:43.640Z,9.70
2022-12-27T10:36:15.854Z,9.05
2022-12-27T10:38:43.655Z,12.40
2022-12-27T10:41:26.053Z,11.57
2022-12-27T10:43:55.866Z,9.07
2022-12-27T10:46:32.421Z,10.45
2022-12-27T10:51:52.723Z,12.90
2022-12-27T10:54:24.473Z,9.55
2022-12-27T10:56:52.341Z,9.65
2022-12-27T10:59:22.749Z,10.40
2022-12-27T11:02:16.283Z,8.68
2022-12-27T11:04:59.933Z,9.63
2022-12-27T11:07:31.886Z,10.23
2022-12-27T11:10:16.687Z,8.90
2022-12-27T11:13:00.120Z,11.05
2022-12-27T11:15:30.239Z,10.25
2022-12-27T11:18:01.812Z,9.23
2022-12-27T11:20:33.084Z,13.13
2022-12-27T11:23:03.538Z,12.65
2022-12-27T11:25:32.606Z,11.50
2022-12-27T11:28:03.987Z,13.20
2022-12-27T11:30:34.728Z,10.73
2022-12-27T11:33:06.946Z,9.85
2022-12-27T11:35:46.307Z,13.23
2022-12-27T11:38:23.959Z,9.27
2022-12-27T11:41:00.928Z,10.00
2022-12-27T11:43:34.830Z,9.98
2022-12-27T11:46:06.701Z,11.57
2022-12-27T11:48:40.624Z,11.55
2022-12-27T11:51:38.535Z,9.80
2022-12-27T11:54:29.804Z,8.50
2022-12-27T11:57:11.466Z,12.50
2022-12-27T11:59:54.017Z,8.13
2022-12-27T12:02:43.107Z,10.90
2022-12-27T12:05:44.489Z,12.02
2022-12-27T12:08:34.713Z,9.38
2022-12-27T12:11:14.722Z,12.65
2022-12-27T12:14:33.155Z,9.10
2022-12-27T12:17:22.460Z,8.32
2022-12-27T12:20:07.294Z,11.32
2022-12-27T12:22:46.245Z,10.65
2022-12-27T12:25:44.571Z,10.35
2022-12-27T12:28:59.198Z,9.75
2022-12-27T12:32:02.729Z,13.07
2022-12-27T12:37:17.729Z,8.15
2022-12-27T12:40:08.175Z,10.82
2022-12-27T12:42:44.340Z,10.95
2022-12-27T12:45:44.590Z,12.75
2022-12-27T12:48:38.214Z,8.10
2022-12-27T12:51:31.817Z,11.50
2022-12-27T12:54:09.012Z,11.63
2022-12-27T12:56:59.836Z,17.90
2022-12-27T12:59:49.993Z,14.25
2022-12-27T13:02:38.295Z,10.15
2022-12-27T13:05:16.440Z,9.60
2022-12-27T13:07:57.020Z,11.75
2022-12-27T13:11:06.458Z,10.20
2022-12-27T13:13:46.126Z,10.00
2022-12-27T13:16:25.262Z,16.73
2022-12-27T13:19:06.747Z,10.50
2022-12-27T13:21:52.397Z,11.63
2022-12-27T13:24:29.938Z,9.18
2022-12-27T13:27:08.032Z,10.38
2022-12-27T13:29:51.326Z,12.70
2022-12-27T13:32:36.493Z,7.25
2022-12-27T13:35:20.800Z,8.85
2022-12-27T13:37:57.125Z,8.70
2022-12-27T13:40:44.374Z,10.32
2022-12-27T13:43:27.957Z,10.05
2022-12-27T13:46:13.396Z,10.60
2022-12-27T13:49:03.573Z,9.90
2022-12-27T13:51:44.908Z,7.43
2022-12-27T13:54:39.503Z,9.10
2022-12-27T13:57:18.537Z,11.85
2022-12-27T14:00:05.130Z,11.00
2022-12-27T14:03:06.176Z,8.82
2022-12-27T14:06:17.402Z,10.20
2022-12-27T14:09:19.804Z,11.10
2022-12-27T14:11:58.284Z,16.08
2022-12-27T14:14:28.654Z,12.43
2022-12-27T14:17:21.380Z,12.48
2022-12-27T14:20:12.190Z,13.85
2022-12-27T14:23:12.452Z,12.70
2022-12-27T14:26:13.405Z,12.43
2022-12-27T14:29:10.176Z,12.60
2022-12-27T14:32:11.875Z,11.00
2022-12-27T14:35:05.493Z,25.67
2022-12-27T14:38:02.195Z,15.52
2022-12-27T14:40:48.709Z,25.42
2022-12-27T14:43:50.972Z,22.65
2022-12-27T14:46:54.410Z,11.63
2022-12-27T14:49:57.037Z,16.63
2022-12-27T14:53:09.196Z,19.65
2022-12-27T14:55:56.795Z,19.02
2022-12-27T14:58:47.460Z,17.55
2022-12-27T15:01:26.814Z,18.70
2022-12-27T15:04:05.053Z,20.73
2022-12-27T15:06:51.481Z,15.80
2022-12-27T15:09:30.658Z,15.48
2022-12-27T15:12:10.106Z,18.42
2022-12-27T15:14:53.954Z,13.88
2022-12-27T15:17:32.727Z,14.95
2022-12-27T15:20:24.815Z,18.50
2022-12-27T15:23:05.184Z,17.92
2022-12-27T15:25:48.290Z,19.13
2022-12-27T15:28:26.427Z,17.20
2022-12-27T15:31:00.144Z,16.40
2022-12-27T15:33:37.558Z,23.05
2022-12-27T15:36:10.792Z,20.20
2022-12-27T15:38:51.204Z,16.20
2022-12-27T15:41:32.535Z,21.88
2022-12-27T15:44:26.132Z,18.60
2022-12-27T15:47:24.601Z,21.55
2022-12-27T15:50:13.504Z,20.17
2022-12-27T15:53:00.607Z,23.27
2022-12-27T15:55:47.792Z,24.40
2022-12-27T15:58:17.988Z,20.73
2022-12-27T16:01:07.647Z,17.20
2022-12-27T16:03:38.490Z,14.07
2022-12-27T16:06:07.954Z,11.98
2022-12-27T16:08:40.707Z,16.63
2022-12-27T16:11:11.673Z,8.68
2022-12-27T16:13:50.355Z,13.55
2022-12-27T16:16:57.640Z,14.20
2022-12-27T16:19:48.651Z,15.38
2022-12-27T16:22:25.603Z,20.88
2022-12-27T16:24:53.442Z,20.52
2022-12-27T16:27:28.493Z,20.67
2022-12-27T16:29:56.863Z,17.30
2022-12-27T16:32:26.347Z,28.77
2022-12-27T16:35:09.791Z,19.30
2022-12-27T16:37:45.156Z,18.40
2022-12-27T16:40:39.765Z,19.73
2022-12-27T16:43:50.256Z,19.00
2022-12-27T16:46:42.420Z,19.67
2022-12-27T16:49:33.396Z,24.60
2022-12-27T16:52:20.739Z,15.00
2022-12-27T16:54:55.590Z,18.92
2022-12-27T16:57:35.194Z,14.88
2022-12-27T17:00:06.524Z,18.60
2022-12-27T17:02:41.879Z,17.38
2022-12-27T17:05:58.675Z,21.08
2022-12-27T17:08:32.932Z,20.83
2022-12-27T17:11:23.742Z,14.98
2022-12-27T17:13:55.669Z,16.75
2022-12-27T17:16:26.360Z,15.48
2022-12-27T17:18:57.940Z,13.23
2022-12-27T17:21:30.736Z,17.00
2022-12-27T17:24:02.610Z,20.45
2022-12-27T17:26:55.507Z,12.73
2022-12-27T17:32:06.733Z,17.15
2022-12-27T17:34:47.142Z,16.40
2022-12-27T17:37:20.150Z,17.08
2022-12-27T17:40:03.303Z,14.55
2022-12-27T17:42:53.895Z,16.65
2022-12-27T17:45:34.019Z,13.20
2022-12-27T17:48:13.128Z,13.70
2022-12-27T17:50:44.728Z,18.58
2022-12-27T17:53:39.201Z,19.30
2022-12-27T17:56:35.848Z,17.63
2022-12-27T17:59:09.618Z,17.48
2022-12-27T18:01:43.044Z,25.45
2022-12-27T18:04:20.880Z,18.10
2022-12-27T18:06:48.856Z,21.88
2022-12-27T18:09:37.393Z,22.67
2022-12-27T18:12:13.222Z,33.92
2022-12-27T18:14:41.242Z,26.20
2022-12-27T18:17:26.873Z,26.65
2022-12-27T18:19:56.573Z,26.10
2022-12-27T18:22:24.422Z,20.15
2022-12-27T18:24:52.216Z,21.85
2022-12-27T18:27:25.355Z,19.90
2022-12-27T18:29:53.035Z,22.67
2022-12-27T18:32:21.213Z,17.38
2022-12-27T18:34:53.003Z,16.40
2022-12-27T18:37:23.388Z,18.65
2022-12-27T18:39:53.936Z,22.30
2022-12-27T18:42:30.897Z,16.35
2022-12-27T18:45:02.941Z,18.98
2022-12-27T18:47:30.873Z,27.05
2022-12-27T18:50:00.633Z,38.35
2022-12-27T18:52:32.733Z,19.50
2022-12-27T18:55:13.825Z,19.85
2022-12-27T18:57:42.986Z,18.33
2022-12-27T19:00:17.872Z,19.17
2022-12-27T19:02:46.409Z,18.65
2022-12-27T19:05:26.901Z,20.60
2022-12-27T19:08:00.593Z,16.17
2022-12-27T19:10:30.339Z,13.85
2022-12-27T19:12:59.565Z,12.15
2022-12-27T19:15:29.713Z,14.38
2022-12-27T19:18:00.472Z,21.88
2022-12-27T19:20:30.493Z,17.27
2022-12-27T19:23:01.849Z,17.42
2022-12-27T19:25:31.983Z,13.93
2022-12-27T19:28:06.559Z,13.75
2022-12-27T19:30:37.243Z,16.77
2022-12-27T19:33:09.709Z,10.93
2022-12-27T19:38:06.052Z,13.63
2022-12-27T19:40:34.000Z,12.68
2022-12-27T19:43:01.721Z,13.50
2022-12-27T19:45:30.879Z,17.58
2022-12-27T19:47:58.757Z,14.65
2022-12-27T19:50:31.460Z,12.90
2022-12-27T19:52:59.796Z,14.95
2022-12-27T19:55:28.465Z,15.25
2022-12-27T19:57:56.176Z,12.55
2022-12-27T20:00:24.669Z,13.50
2022-12-27T20:02:54.218Z,19.13
2022-12-27T20:06:12.443Z,22.92
2022-12-27T20:08:25.903Z,23.58
2022-12-27T20:10:53.992Z,15.73
2022-12-27T20:13:22.244Z,15.23
2022-12-27T20:15:50.762Z,40.55
2022-12-27T20:18:20.237Z,16.25
2022-12-27T20:20:48.418Z,17.67
2022-12-27T20:23:16.852Z,22.55
2022-12-27T20:25:46.528Z,12.75
2022-12-27T20:28:15.396Z,13.50
2022-12-27T20:30:44.917Z,10.68
2022-12-27T20:33:13.110Z,11.48
2022-12-27T20:35:42.357Z,12.68
2022-12-27T20:38:11.691Z,13.43
2022-12-27T20:40:40.562Z,15.50
2022-12-27T20:43:08.289Z,15.18
2022-12-27T20:45:36.856Z,16.85
2022-12-27T20:48:09.280Z,17.55
2022-12-27T20:50:37.182Z,14.63
2022-12-27T20:53:06.461Z,11.48
2022-12-27T20:55:34.741Z,12.68
2022-12-27T20:58:02.792Z,12.20
2022-12-27T21:00:30.454Z,11.18
2022-12-27T21:02:58.399Z,11.95
2022-12-27T21:05:26.215Z,7.40
2022-12-27T21:07:53.938Z,10.68
2022-12-27T21:10:23.263Z,12.15
2022-12-27T21:12:51.238Z,8.38
2022-12-27T21:15:19.165Z,9.18
2022-12-27T21:17:47.251Z,9.50
2022-12-27T21:20:15.066Z,12.95
2022-12-27T21:22:42.813Z,13.35
2022-12-27T21:25:10.877Z,12.88
2022-12-27T21:27:39.919Z,11.05
2022-12-27T21:30:08.866Z,11.35
2022-12-27T21:32:36.614Z,10.85
2022-12-27T21:35:04.344Z,8.05
2022-12-27T21:37:32.016Z,11.13
2022-12-27T21:39:59.813Z,14.38
2022-12-27T21:42:27.467Z,11.93
2022-12-27T21:44:56.521Z,9.52
2022-12-27T21:47:26.008Z,8.10
2022-12-27T21:49:53.638Z,12.55
2022-12-27T21:52:21.301Z,10.18
2022-12-27T21:54:49.045Z,10.50
2022-12-27T21:57:16.735Z,12.20
2022-12-27T21:59:44.382Z,11.43
2022-12-27T22:02:13.619Z,8.55
2022-12-27T22:04:41.411Z,9.02
2022-12-27T22:07:09.131Z,6.88
2022-12-27T22:09:37.022Z,6.43
2022-12-27T22:12:04.965Z,13.85
2022-12-27T22:14:36.890Z,10.48
2022-12-27T22:17:04.943Z,9.07
2022-12-27T22:19:34.035Z,6.82
2022-12-27T22:22:01.762Z,8.20
2022-12-27T22:24:29.468Z,10.85
2022-12-27T22:26:57.178Z,6.50
2022-12-27T22:29:24.979Z,8.52
2022-12-27T22:31:52.706Z,10.98
2022-12-27T22:34:20.404Z,9.95
2022-12-27T22:36:53.068Z,5.65
2022-12-27T22:39:20.835Z,7.95
2022-12-27T22:41:48.516Z,9.38
2022-12-27T22:44:16.241Z,8.30
2022-12-27T22:47:15.707Z,8.82
2022-12-27T22:49:31.841Z,11.07
2022-12-27T22:52:00.836Z,6.18
2022-12-27T22:55:05.879Z,9.13
2022-12-27T22:57:16.176Z,8.20
2022-12-27T22:59:44.250Z,6.57
2022-12-27T23:02:12.093Z,5.35
2022-12-27T23:04:40.019Z,5.65
2022-12-27T23:07:09.143Z,6.63
2022-12-27T23:09:42.905Z,7.07
2022-12-27T23:12:11.301Z,7.15
2022-12-27T23:14:39.100Z,5.93
2022-12-27T23:17:06.842Z,6.30
2022-12-27T23:19:34.518Z,6.18
2022-12-27T23:22:02.144Z,7.18
2022-12-27T23:24:31.189Z,7.15
2022-12-27T23:26:58.833Z,5.47
2022-12-27T23:29:26.591Z,9.13
2022-12-27T23:31:55.685Z,7.40
2022-12-27T23:34:28.586Z,5.50
2022-12-27T23:36:57.093Z,6.38
2022-12-27T23:39:24.912Z,6.90
2022-12-27T23:41:53.950Z,7.53
2022-12-27T23:44:26.473Z,8.70
2022-12-27T23:47:02.525Z,10.40
2022-12-27T23:49:30.832Z,10.50
2022-12-27T23:51:58.609Z,7.80
2022-12-27T23:54:26.292Z,11.25
2022-12-27T23:56:55.348Z,9.77
2022-12-27T23:59:23.026Z,9.55
